Terminal Aerodrome Forecast
Issued by NWS

Home | Current Version | Previous Version | Text Only | Print | Product List | Glossary On
Versions: 1 2 3 4 5 6 7 8 9 10 11 12 13 14 15 16 17 18 19 20 21
031
FTUS44 KLZK 010157 AAB
TAFBPK
TAF AMD
KBPK 010157Z 0102/0124 34006KT 5SM BR VCTS SCT030CB BKN080
      TEMPO 0102/0104 VRB20G30KT 2SM TSRA SCT010 OVC020CB
     FM010400 29005KT P6SM SCT030
     FM010600 31003KT 3SM BR OVC020
     FM011400 29006KT P6SM SCT250=

USA.gov is the U.S. government's official web portal to all federal, state and local government web resources and services.